Map

Track Data

SID SEASON NUMBER BASIN SUBBASIN NAME ISO_TIME NATURE LAT LON WMO_WIND WMO_PRES WMO_AGENCY TRACK_TYPE DIST2LAND LANDFALL IFLAG USA_AGENCY USA_ATCF_ID USA_LAT USA_LON USA_RECORD USA_STATUS USA_WIND USA_PRES USA_SSHS USA_R34_NE USA_R34_SE USA_R34_SW USA_R34_NW USA_R50_NE USA_R50_SE USA_R50_SW USA_R50_NW USA_R64_NE USA_R64_SE USA_R64_SW USA_R64_NW USA_POCI USA_ROCI USA_RMW USA_EYE TOKYO_LAT TOKYO_LON TOKYO_GRADE TOKYO_WIND TOKYO_PRES TOKYO_R50_DIR TOKYO_R50_LONG TOKYO_R50_SHORT TOKYO_R30_DIR TOKYO_R30_LONG TOKYO_R30_SHORT TOKYO_LAND CMA_LAT CMA_LON CMA_CAT CMA_WIND CMA_PRES HKO_LAT HKO_LON HKO_CAT HKO_WIND HKO_PRES NEWDELHI_LAT NEWDELHI_LON NEWDELHI_GRADE NEWDELHI_WIND NEWDELHI_PRES NEWDELHI_CI NEWDELHI_DP NEWDELHI_POCI REUNION_LAT REUNION_LON REUNION_TYPE REUNION_WIND REUNION_PRES REUNION_TNUM REUNION_CI REUNION_RMW REUNION_R34_NE REUNION_R34_SE REUNION_R34_SW REUNION_R34_NW REUNION_R50_NE REUNION_R50_SE REUNION_R50_SW REUNION_R50_NW REUNION_R64_NE REUNION_R64_SE REUNION_R64_SW REUNION_R64_NW BOM_LAT BOM_LON BOM_TYPE BOM_WIND BOM_PRES BOM_TNUM BOM_CI BOM_RMW BOM_R34_NE BOM_R34_SE BOM_R34_SW BOM_R34_NW BOM_R50_NE BOM_R50_SE BOM_R50_SW BOM_R50_NW BOM_R64_NE BOM_R64_SE BOM_R64_SW BOM_R64_NW BOM_ROCI BOM_POCI BOM_EYE BOM_POS_METHOD BOM_PRES_METHOD NADI_LAT NADI_LON NADI_CAT NADI_WIND NADI_PRES WELLINGTON_LAT WELLINGTON_LON WELLINGTON_WIND WELLINGTON_PRES DS824_LAT DS824_LON DS824_STAGE DS824_WIND DS824_PRES TD9636_LAT TD9636_LON TD9636_STAGE TD9636_WIND TD9636_PRES TD9635_LAT TD9635_LON TD9635_WIND TD9635_PRES TD9635_ROCI NEUMANN_LAT NEUMANN_LON NEUMANN_CLASS NEUMANN_WIND NEUMANN_PRES MLC_LAT MLC_LON MLC_CLASS MLC_WIND MLC_PRES USA_GUST BOM_GUST BOM_GUST_PER REUNION_GUST REUNION_GUST_PER USA_SEAHGT USA_SEARAD_NE USA_SEARAD_SE USA_SEARAD_SW USA_SEARAD_NW STORM_SPEED STORM_DIR
2021155N11254 2021 32 EP MM CARLOS 2021-06-03 18:00:00 NR 10.8000 -105.600 PROVISIONAL 867 849 O_____________ nhc_working_bt EP032021 10.8000 -105.600 DB 15 -3 1011 120 40 6 334
2021155N11254 2021 32 EP MM CARLOS 2021-06-03 21:00:00 NR 11.0575 -105.725 PROVISIONAL 839 824 P_____________ EP032021 11.0575 -105.725 DB 15 -3 1011 120 40 6 330
2021155N11254 2021 32 EP MM CARLOS 2021-06-04 00:00:00 NR 11.3000 -105.900 PROVISIONAL 824 810 O_____________ nhc_working_bt EP032021 11.3000 -105.900 DB 15 -3 1011 120 40 6 318
2021155N11254 2021 32 EP MM CARLOS 2021-06-04 03:00:00 NR 11.5150 -106.150 PROVISIONAL 810 797 P_____________ EP032021 11.5150 -106.150 DB 15 -3 1011 120 40 6 309
2021155N11254 2021 32 EP MM CARLOS 2021-06-04 06:00:00 NR 11.7000 -106.400 PROVISIONAL 801 789 O_____________ nhc_working_bt EP032021 11.7000 -106.400 DB 15 -3 1011 120 40 5 310
2021155N11254 2021 32 EP MM CARLOS 2021-06-04 09:00:00 NR 11.8650 -106.573 PROVISIONAL 789 784 P_____________ EP032021 11.8650 -106.573 DB 17 -3 1011 120 35 4 316
2021155N11254 2021 32 EP MM CARLOS 2021-06-04 12:00:00 DS 12.0000 -106.700 PROVISIONAL 784 779 O_____________ nhc_working_bt EP032021 12.0000 -106.700 LO 20 1009 -3 1011 120 30 3 316
2021155N11254 2021 32 EP MM CARLOS 2021-06-04 15:00:00 DS 12.1075 -106.808 PROVISIONAL 779 774 P_____________ EP032021 12.1075 -106.808 LO 20 1009 -3 1011 120 40 3 316
2021155N11254 2021 32 EP MM CARLOS 2021-06-04 18:00:00 DS 12.2000 -106.900 PROVISIONAL 774 764 O_____________ nhc_working_bt EP032021 12.2000 -106.900 LO 20 1009 -3 1011 120 50 2 318
2021155N11254 2021 32 EP MM CARLOS 2021-06-04 21:00:00 DS 12.2925 -106.978 PROVISIONAL 769 759 P_____________ EP032021 12.2925 -106.978 LO 22 1008 -3 1010 120 50 3 316
2021155N11254 2021 32 EP MM CARLOS 2021-06-05 00:00:00 DS 12.4000 -107.100 PROVISIONAL 764 760 O_____________ nhc_working_bt EP032021 12.4000 -107.100 LO 25 1008 -3 1010 120 50 4 306
2021155N11254 2021 32 EP MM CARLOS 2021-06-05 03:00:00 DS 12.5425 -107.335 PROVISIONAL 766 756 P_____________ EP032021 12.5425 -107.335 LO 25 1007 -3 1010 120 50 6 302
2021155N11254 2021 32 EP MM CARLOS 2021-06-05 06:00:00 DS 12.7000 -107.600 PROVISIONAL 765 762 O_____________ nhc_working_bt EP032021 12.7000 -107.600 LO 25 1007 -3 1010 120 50 35 6 300
2021155N11254 2021 32 EP MM CARLOS 2021-06-05 09:00:00 DS 12.8574 -107.905 PROVISIONAL 766 764 P_____________ EP032021 12.8574 -107.905 LO 25 1007 -3 1010 120 50 5 308
2021155N11254 2021 32 EP MM CARLOS 2021-06-05 12:00:00 DS 13.0000 -108.000 PROVISIONAL 764 728 O_____________ nhc_working_bt EP032021 13.0000 -108.000 LO 25 1007 -3 1010 120 50 40 4 51
2021155N11254 2021 32 EP MM CARLOS 2021-06-05 15:00:00 DS 13.1379 -107.550 PROVISIONAL 728 688 P_____________ EP032021 13.1379 -107.550 LO 25 1007 -3 1010 120 75 9 77
2021155N11254 2021 32 EP MM CARLOS 2021-06-05 18:00:00 DS 13.2000 -107.100 PROVISIONAL 688 688 O_____________ nhc_working_bt EP032021 13.2000 -107.100 LO 25 1007 -3 1010 120 100 35 3 94
2021155N11254 2021 32 EP MM CARLOS 2021-06-05 21:00:00 DS 13.1149 -107.203 PROVISIONAL 704 704 P_____________ EP032021 13.1149 -107.203 LO 25 1007 -3 1010 120 85 4 243
2021155N11254 2021 32 EP MM CARLOS 2021-06-06 00:00:00 NR 13.0000 -107.500 PROVISIONAL 731 731 O_____________ nhc_working_bt EP032021 13.0000 -107.500 DB 25 1007 -3 1010 120 70 35 5 255
2021155N11254 2021 32 EP MM CARLOS 2021-06-06 03:00:00 NR 12.9850 -107.715 PROVISIONAL 744 744 P_____________ EP032021 12.9850 -107.715 DB 25 1007 -3 1010 120 70 4 270
2021155N11254 2021 32 EP MM CARLOS 2021-06-06 06:00:00 DS 13.0000 -107.900 PROVISIONAL 757 757 O_____________ nhc_working_bt EP032021 13.0000 -107.900 LO 25 1007 -3 1010 120 70 3 270
2021155N11254 2021 32 EP MM CARLOS 2021-06-06 09:00:00 DS 12.9849 -107.985 PROVISIONAL 764 764 P_____________ EP032021 12.9849 -107.985 LO 25 1007 -3 1010 120 60 2 270
2021155N11254 2021 32 EP MM CARLOS 2021-06-06 12:00:00 DS 13.0000 -108.100 PROVISIONAL 771 769 O_____________ nhc_working_bt EP032021 13.0000 -108.100 LO 25 1007 -3 1010 120 50 35 4 287
2021155N11254 2021 32 EP MM CARLOS 2021-06-06 15:00:00 DS 13.1076 -108.392 PROVISIONAL 783 779 P_____________ EP032021 13.1076 -108.392 LO 25 1007 -3 1010 120 50 6 289
2021155N11254 2021 32 EP MM CARLOS 2021-06-06 18:00:00 DS 13.2000 -108.700 PROVISIONAL 790 790 O_____________ nhc_working_bt EP032021 13.2000 -108.700 LO 25 1007 -3 1010 120 50 35 5 277
2021155N11254 2021 32 EP MM CARLOS 2021-06-06 21:00:00 DS 13.1649 -108.873 PROVISIONAL 801 801 P_____________ EP032021 13.1649 -108.873 LO 25 1007 -3 1010 120 50 3 251
2021155N11254 2021 32 EP MM CARLOS 2021-06-07 00:00:00 DS 13.1000 -109.000 PROVISIONAL 816 816 O_____________ nhc_working_bt EP032021 13.1000 -109.000 LO 25 1007 -3 1010 120 50 35 3 255
2021155N11254 2021 32 EP MM CARLOS 2021-06-07 03:00:00 DS 13.0925 -109.142 PROVISIONAL 822 822 P_____________ EP032021 13.0925 -109.142 LO 25 1007 -3 1010 120 55 3 270
2021155N11254 2021 32 EP MM CARLOS 2021-06-07 06:00:00 DS 13.1000 -109.300 PROVISIONAL 834 834 O_____________ nhc_working_bt EP032021 13.1000 -109.300 LO 25 1008 -3 1010 120 60 35 3 271
2021155N11254 2021 32 EP MM CARLOS 2021-06-07 09:00:00 DS 13.1000 -109.485 PROVISIONAL 847 847 P_____________ EP032021 13.1000 -109.485 LO 25 1008 -3 1010 120 60 4 270
2021155N11254 2021 32 EP MM CARLOS 2021-06-07 12:00:00 DS 13.1000 -109.700 PROVISIONAL 860 860 O_____________ nhc_working_bt EP032021 13.1000 -109.700 LO 25 1008 -3 1010 120 60 35 5 271
2021155N11254 2021 32 EP MM CARLOS 2021-06-07 15:00:00 DS 13.1075 -109.957 PROVISIONAL 879 879 P_____________ EP032021 13.1075 -109.957 LO 27 1008 -3 1010 135 50 5 270
2021155N11254 2021 32 EP MM CARLOS 2021-06-07 18:00:00 DS 13.1000 -110.200 PROVISIONAL 893 893 O_____________ nhc_working_bt EP032021 13.1000 -110.200 LO 30 1008 -3 1011 150 40 40 4 266
2021155N11254 2021 32 EP MM CARLOS 2021-06-07 21:00:00 DS 13.0800 -110.372 PROVISIONAL 907 907 P_____________ EP032021 13.0800 -110.372 LO 27 1008 -3 1011 150 40 3 251
2021155N11254 2021 32 EP MM CARLOS 2021-06-08 00:00:00 DS 13.0000 -110.500 PROVISIONAL 923 923 O_____________ nhc_working_bt EP032021 13.0000 -110.500 LO 25 1008 -3 1011 150 40 4 219
2021155N11254 2021 32 EP MM CARLOS 2021-06-08 03:00:00 DS 12.8075 -110.600 PROVISIONAL 947 947 P_____________ EP032021 12.8075 -110.600 LO 25 1008 -3 1011 150 55 4 206
2021155N11254 2021 32 EP MM CARLOS 2021-06-08 06:00:00 DS 12.6000 -110.700 PROVISIONAL 971 971 O_____________ nhc_working_bt EP032021 12.6000 -110.700 LO 25 1008 -3 1011 150 70 4 212
2021155N11254 2021 32 EP MM CARLOS 2021-06-08 09:00:00 DS 12.4700 -110.820 PROVISIONAL 986 986 P_____________ EP032021 12.4700 -110.820 LO 25 1008 -3 1011 150 70 4 236
2021155N11254 2021 32 EP MM CARLOS 2021-06-08 12:00:00 DS 12.4000 -111.000 PROVISIONAL 1009 1009 O_____________ nhc_working_bt EP032021 12.4000 -111.000 LO 25 1008 -3 1011 150 70 5 259
2021155N11254 2021 32 EP MM CARLOS 2021-06-08 15:00:00 DS 12.3850 -111.277 PROVISIONAL 1030 1030 P_____________ EP032021 12.3850 -111.277 LO 25 1008 -3 1011 150 70 6 270
2021155N11254 2021 32 EP MM CARLOS 2021-06-08 18:00:00 DS 12.4000 -111.600 PROVISIONAL 1052 1052 O_____________ nhc_working_bt EP032021 12.4000 -111.600 LO 25 1008 -3 1011 150 70 6 272
2021155N11254 2021 32 EP MM CARLOS 2021-06-08 21:00:00 DS 12.4075 -111.907 PROVISIONAL 1075 1075 P_____________ EP032021 12.4075 -111.907 LO 25 1008 -3 1011 150 70 6 270
2021155N11254 2021 32 EP MM CARLOS 2021-06-09 00:00:00 DS 12.4000 -112.200 PROVISIONAL 1098 1098 O_____________ nhc_working_bt EP032021 12.4000 -112.200 LO 25 1008 -3 1011 150 70 5 265
2021155N11254 2021 32 EP MM CARLOS 2021-06-09 03:00:00 DS 12.3650 -112.457 PROVISIONAL 1120 1120 P_____________ EP032021 12.3650 -112.457 LO 25 1008 -3 1011 150 70 5 258
2021155N11254 2021 32 EP MM CARLOS 2021-06-09 06:00:00 DS 12.3000 -112.700 PROVISIONAL 1144 1144 O_____________ nhc_working_bt EP032021 12.3000 -112.700 LO 25 1008 -3 1011 150 70 5 253
2021155N11254 2021 32 EP MM CARLOS 2021-06-09 09:00:00 DS 12.2150 -112.950 PROVISIONAL 1167 1167 P_____________ EP032021 12.2150 -112.950 LO 25 1008 -3 1011 150 70 5 248
2021155N11254 2021 32 EP MM CARLOS 2021-06-09 12:00:00 DS 12.1000 -113.200 PROVISIONAL 1198 1198 O_____________ nhc_working_bt EP032021 12.1000 -113.200 LO 25 1008 -3 1011 150 70 6 241
2021155N11254 2021 32 EP MM CARLOS 2021-06-09 15:00:00 DS 11.9425 -113.450 PROVISIONAL 1237 1237 P_____________ EP032021 11.9425 -113.450 LO 25 1008 -3 1011 150 70 6 238
2021155N11254 2021 32 EP MM CARLOS 2021-06-09 18:00:00 DS 11.8000 -113.700 PROVISIONAL 1260 1260 O_____________ nhc_working_bt EP032021 11.8000 -113.700 LO 25 1008 -3 1011 150 70 5 246
2021155N11254 2021 32 EP MM CARLOS 2021-06-09 21:00:00 DS 11.7275 -113.950 PROVISIONAL 1283 1283 P_____________ EP032021 11.7275 -113.950 LO 25 1008 -3 1011 150 70 5 258
2021155N11254 2021 32 EP MM CARLOS 2021-06-10 00:00:00 DS 11.7000 -114.200 PROVISIONAL 1306 1306 O_____________ nhc_working_bt EP032021 11.7000 -114.200 LO 25 1008 -3 1011 150 70 5 267
2021155N11254 2021 32 EP MM CARLOS 2021-06-10 03:00:00 DS 11.6999 -114.427 PROVISIONAL 1322 1322 P_____________ EP032021 11.6999 -114.427 LO 25 1008 -3 1011 150 70 5 270
2021155N11254 2021 32 EP MM CARLOS 2021-06-10 06:00:00 DS 11.7000 -114.700 PROVISIONAL 1346 1346 O_____________ nhc_working_bt EP032021 11.7000 -114.700 LO 25 1008 -3 1011 150 70 6 268
2021155N11254 2021 32 EP MM CARLOS 2021-06-10 09:00:00 DS 11.6725 -115.077 PROVISIONAL 1364 1364 P_____________ EP032021 11.6725 -115.077 LO 27 1008 -3 1011 150 80 8 263
2021155N11254 2021 32 EP MM CARLOS 2021-06-10 12:00:00 DS 11.6000 -115.500 PROVISIONAL 1392 1392 O_____________ nhc_working_bt EP032021 11.6000 -115.500 LO 30 1008 -3 1011 150 90 8 254
2021155N11254 2021 32 EP MM CARLOS 2021-06-10 15:00:00 DS 11.4499 -115.893 PROVISIONAL 1430 1430 P_____________ EP032021 11.4499 -115.893 LO 27 1008 -3 1011 150 90 8 249
2021155N11254 2021 32 EP MM CARLOS 2021-06-10 18:00:00 DS 11.3000 -116.300 PROVISIONAL 1459 1459 O_____________ nhc_working_bt EP032021 11.3000 -116.300 LO 25 1009 -3 1012 150 90 9 256
2021155N11254 2021 32 EP MM CARLOS 2021-06-10 21:00:00 DS 11.2424 -116.735 PROVISIONAL 1489 1489 P_____________ EP032021 11.2424 -116.735 LO 25 1009 -3 1012 150 90 9 264
2021155N11254 2021 32 EP MM CARLOS 2021-06-11 00:00:00 DS 11.2000 -117.200 PROVISIONAL 1515 1515 O_____________ nhc_working_bt EP032021 11.2000 -117.200 LO 25 1009 -3 1012 150 90 10 261
2021155N11254 2021 32 EP MM CARLOS 2021-06-11 03:00:00 DS 11.0926 -117.723 PROVISIONAL 1552 1552 P_____________ EP032021 11.0926 -117.723 LO 25 1009 -3 1012 150 90 10 258
2021155N11254 2021 32 EP MM CARLOS 2021-06-11 06:00:00 DS 11.0000 -118.200 PROVISIONAL 1590 1590 O_____________ nhc_working_bt EP032021 11.0000 -118.200 LO 25 1009 -3 1012 150 90 8 262
2021155N11254 2021 32 EP MM CARLOS 2021-06-11 09:00:00 DS 10.9774 -118.530 PROVISIONAL 1608 1608 P_____________ EP032021 10.9774 -118.530 LO 25 1009 -3 1012 150 90 6 270
2021155N11254 2021 32 EP MM CARLOS 2021-06-11 12:00:00 DS 11.0000 -118.800 PROVISIONAL 1626 1626 O_____________ nhc_working_bt EP032021 11.0000 -118.800 LO 25 1009 -3 1012 150 90 5 277
2021155N11254 2021 32 EP MM CARLOS 2021-06-11 15:00:00 DS 11.0424 -119.078 PROVISIONAL 1644 1635 P_____________ EP032021 11.0424 -119.078 LO 25 1009 -3 1012 150 90 6 280
2021155N11254 2021 32 EP MM CARLOS 2021-06-11 18:00:00 DS 11.1000 -119.400 PROVISIONAL 1654 1654 O_____________ nhc_working_bt EP032021 11.1000 -119.400 LO 25 1009 -3 1012 150 90 7 279
2021155N11254 2021 32 EP MM CARLOS 2021-06-11 21:00:00 DS 11.1575 -119.820 PROVISIONAL 1671 1671 P_____________ EP032021 11.1575 -119.820 LO 25 1009 -3 1012 150 90 9 276
2021155N11254 2021 32 EP MM CARLOS 2021-06-12 00:00:00 DS 11.2000 -120.300 PROVISIONAL 1705 1705 O_____________ nhc_working_bt EP032021 11.2000 -120.300 LO 25 1009 -3 1012 150 90 10 271
2021155N11254 2021 32 EP MM CARLOS 2021-06-12 03:00:00 DS 11.1775 -120.800 PROVISIONAL 1739 1739 P_____________ EP032021 11.1775 -120.800 LO 25 1009 -3 1012 150 90 10 270
2021155N11254 2021 32 EP MM CARLOS 2021-06-12 06:00:00 DS 11.2000 -121.300 PROVISIONAL 1775 1775 O_____________ nhc_working_bt EP032021 11.2000 -121.300 LO 25 1009 -3 1012 150 90 9 283
2021155N11254 2021 32 EP MM CARLOS 2021-06-12 09:00:00 DS 11.3848 -121.742 PROVISIONAL 1787 1787 P_____________ EP032021 11.3848 -121.742 LO 27 1008 -3 1012 150 55 10 294
2021155N11254 2021 32 EP MM CARLOS 2021-06-12 12:00:00 DS 11.6000 -122.200 PROVISIONAL 1808 1808 O_____________ nhc_working_bt EP032021 11.6000 -122.200 LO 30 1007 -3 1012 150 20 35 10 289
2021155N11254 2021 32 EP MM CARLOS 2021-06-12 15:00:00 DS 11.7226 -122.750 PROVISIONAL 1839 1837 P_____________ EP032021 11.7226 -122.750 LO 30 1006 -3 1012 150 20 11 281
2021155N11254 2021 32 EP MM CARLOS 2021-06-12 18:00:00 TS 11.8000 -123.300 PROVISIONAL 1863 1863 O_____________ nhc_working_bt EP032021 11.8000 -123.300 TD 30 1006 -1 1012 150 20 40 10 278
2021155N11254 2021 32 EP MM CARLOS 2021-06-12 21:00:00 TS 11.8633 -123.792 PROVISIONAL 1888 1888 P_____________ EP032021 11.8649 -123.773 TD 32 1005 -1 1012 150 20 9 276
2021155N11254 2021 32 EP MM CARLOS 2021-06-13 00:00:00 TS 11.9000 -124.250 PROVISIONAL 1923 1923 O_____________ nhc_working_bt EP032021 11.9000 -124.200 TS 35 1005 0 20 20 1012 150 20 45 8 273
2021155N11254 2021 32 EP MM CARLOS 2021-06-13 03:00:00 TS 11.9101 -124.630 PROVISIONAL 1944 1944 P_____________ EP032021 11.9149 -124.615 TS 37 1003 0 20 20 1012 150 17 7 270
2021155N11254 2021 32 EP MM CARLOS 2021-06-13 06:00:00 TS 11.9026 -124.960 PROVISIONAL 1973 1973 O_____________ nhc_working_bt EP032021 11.9000 -125.000 TS 40 1002 0 20 20 20 20 1012 150 15 50 6 268
2021155N11254 2021 32 EP MM CARLOS 2021-06-13 09:00:00 TS 11.8908 -125.287 PROVISIONAL 1995 1995 P_____________ EP032021 11.8575 -125.365 TS 42 1001 0 25 20 20 25 1012 150 15 7 266
2021155N11254 2021 32 EP MM CARLOS 2021-06-13 12:00:00 TS 11.8623 -125.628 PROVISIONAL 2017 2017 O_____________ nhc_working_bt EP032021 11.8000 -125.700 TS 45 1000 0 30 20 20 30 1012 150 15 55 7 264
2021155N11254 2021 32 EP MM CARLOS 2021-06-13 15:00:00 TS 11.8166 -125.959 PROVISIONAL 2055 2055 P_____________ EP032021 11.7499 -126.007 TS 45 1000 0 30 20 20 30 1012 150 15 6 261
2021155N11254 2021 32 EP MM CARLOS 2021-06-13 18:00:00 TS 11.7592 -126.275 PROVISIONAL 2077 2077 O_____________ nhc_working_bt EP032021 11.7000 -126.300 TS 45 1000 0 30 20 20 30 1012 150 15 55 6 259
2021155N11254 2021 32 EP MM CARLOS 2021-06-13 21:00:00 TS 11.7037 -126.575 PROVISIONAL 2108 2108 P_____________ EP032021 11.6499 -126.592 TS 42 1000 0 30 20 20 30 1012 135 15 6 259
2021155N11254 2021 32 EP MM CARLOS 2021-06-14 00:00:00 TS 11.6500 -126.850 PROVISIONAL 2131 2139 O_____________ nhc_working_bt EP032021 11.6000 -126.900 TS 40 1001 0 30 20 20 30 1012 120 15 50 5 257
2021155N11254 2021 32 EP MM CARLOS 2021-06-14 03:00:00 TS 11.5786 -127.116 PROVISIONAL 2154 2154 P_____________ EP032021 11.5574 -127.220 TS 37 1002 0 25 20 20 25 1012 120 17 6 256
2021155N11254 2021 32 EP MM CARLOS 2021-06-14 06:00:00 TS 11.5000 -127.450 PROVISIONAL 2193 2193 O_____________ nhc_working_bt EP032021 11.5000 -127.600 TS 35 1004 0 20 20 20 20 1012 120 20 45 12 30 30 30 30 8 260
2021155N11254 2021 32 EP MM CARLOS 2021-06-14 09:00:00 TS 11.4400 -127.909 PROVISIONAL 2232 2232 P_____________ EP032021 11.4150 -128.077 TS 35 1004 0 20 20 20 20 1012 120 20 12 30 10 261
2021155N11254 2021 32 EP MM CARLOS 2021-06-14 12:00:00 TS 11.3500 -128.450 PROVISIONAL 2279 2287 O_____________ nhc_working_bt EP032021 11.3000 -128.600 TS 35 1004 0 20 20 20 20 1012 120 20 45 12 30 11 257
2021155N11254 2021 32 EP MM CARLOS 2021-06-14 15:00:00 TS 11.1938 -129.040 PROVISIONAL 2334 2334 P_____________ EP032021 11.1650 -129.115 TS 32 1005 -1 1012 120 20 12 30 12 253
2021155N11254 2021 32 EP MM CARLOS 2021-06-14 18:00:00 TS 11.0000 -129.600 PROVISIONAL 2397 2397 O_____________ nhc_working_bt EP032021 11.0000 -129.600 TD 30 1007 -1 1012 120 20 40 12 30 10 248
2021155N11254 2021 32 EP MM CARLOS 2021-06-14 21:00:00 TS 10.8035 -130.019 PROVISIONAL 2445 2445 P_____________ EP032021 10.8074 -130.007 TD 30 1007 -1 1011 120 20 12 9 243
2021155N11254 2021 32 EP MM CARLOS 2021-06-15 00:00:00 TS 10.6000 -130.400 PROVISIONAL 2492 2492 O_____________ nhc_working_bt EP032021 10.6000 -130.400 TD 30 1007 -1 1011 120 20 40 12 30 9 242
2021155N11254 2021 32 EP MM CARLOS 2021-06-15 03:00:00 TS 10.3812 -130.843 PROVISIONAL 2540 2540 P_____________ EP032021 10.3850 -130.843 TD 30 1007 -1 1011 120 22 10 246
2021155N11254 2021 32 EP MM CARLOS 2021-06-15 06:00:00 TS 10.2000 -131.300 PROVISIONAL 2595 2595 O_____________ nhc_working_bt EP032021 10.2000 -131.300 TD 30 1007 -1 1011 120 25 40 9 253
2021155N11254 2021 32 EP MM CARLOS 2021-06-15 09:00:00 TS 10.1062 -131.750 PROVISIONAL 2631 2631 P_____________ EP032021 10.0774 -131.750 TD 30 1007 -1 1011 120 25 9 260
2021155N11254 2021 32 EP MM CARLOS 2021-06-15 12:00:00 TS 10.0500 -132.200 PROVISIONAL 2644 2610 O_____________ nhc_working_bt EP032021 10.0000 -132.200 TD 30 1007 -1 1011 120 25 40 9 262
2021155N11254 2021 32 EP MM CARLOS 2021-06-15 15:00:00 TS 9.98247 -132.657 PROVISIONAL 2600 2566 P_____________ EP032021 9.95747 -132.657 TD 30 1007 -1 1011 120 27 9 260
2021155N11254 2021 32 EP MM CARLOS 2021-06-15 18:00:00 TS 9.90000 -133.100 PROVISIONAL 2566 2532 O_____________ nhc_working_bt EP032021 9.90000 -133.100 TD 30 1007 -1 1011 120 30 40 9 257
2021155N11254 2021 32 EP MM CARLOS 2021-06-15 21:00:00 TS 9.79370 -133.515 PROVISIONAL 2532 2499 P_____________ EP032021 9.77247 -133.523 TD 30 1007 -1 1011 120 30 8 252
2021155N11254 2021 32 EP MM CARLOS 2021-06-16 00:00:00 TS 9.65000 -133.900 PROVISIONAL 2499 2471 O_____________ nhc_working_bt EP032021 9.60000 -133.900 TD 30 1007 -1 1011 120 30 40 8 247
2021155N11254 2021 32 EP MM CARLOS 2021-06-16 03:00:00 TS 9.47250 -134.280 PROVISIONAL 2471 2454 P_____________ EP032021 9.41495 -134.222 TD 30 1007 -1 1011 120 30 8 240
2021155N11254 2021 32 EP MM CARLOS 2021-06-16 06:00:00 TS 9.25000 -134.600 PROVISIONAL 2454 2446 O_____________ nhc_working_bt EP032021 9.20000 -134.500 TD 30 1007 -1 1011 120 30 40 7 228
2021155N11254 2021 32 EP MM CARLOS 2021-06-16 09:00:00 TS 8.98625 -134.828 PROVISIONAL 2452 2445 P_____________ EP032021 8.95754 -134.755 TD 27 1007 -1 1011 120 30 7 216
2021155N11254 2021 32 EP MM CARLOS 2021-06-16 12:00:00 DS 8.70000 -135.000 PROVISIONAL 2450 O_____________ nhc_working_bt EP032021 8.70000 -135.000 LO 25 1008 -3 1012 120 30 35 7 211

About IBTrACS Database

This database is a web-friendly format of International Best Track Archive for Climate Stewardship (IBTrACS), a global best track data archive curated by NOAA dating back to 1842.

Updated: 2021-07-30